Latest Weather Observations for Borroloola

IDD60801

Issued at 7:31 pm CST Friday 19 December 2014 (issued every 30 minutes, with the page automatically refreshed every 10 minutes)

About weather observations | Map of weather stations | Latest weather observations for NT | Other Formats
Station Details ID: 014723 Name: BORROLOOLA AIRPORT Lat: -16.08 Lon: 136.30 Height: 16.1 m
Data from the previous 72 hours. | See also: Recent months at Borroloola
Date/Time
CST
Temp
°C
App
Temp
°C
Dew
Point
Rel
Hum
%
Delta-T
°C
Wind Press
QNH
hPa
Press
MSL
hPa
Rain
since 9 am
mm
Dir
 
Spd
km/h
Gust
km/h
Spd
kts
Gust
kts
19/07:30pm 25.4 23.3 20.6 75 3.1 SE 32 43 17 23 1010.1 1010.0 0.0
19/07:10pm 27.5 22.4 18.5 58 5.8 ESE 43 67 23 36 1010.2 1010.1 0.0
19/07:09pm 27.8 22.7 18.5 57 6.0 ESE 43 67 23 36 1010.0 1009.9 0.0
19/07:00pm 29.7 27.0 17.5 48 7.7 E 28 65 15 35 1009.8 1009.7 0.0
19/06:57pm 31.7 31.1 17.6 43 9.0 ENE 17 65 9 35 1009.4 1009.3 0.0
19/06:30pm 34.0 34.8 20.7 45 8.9 NNE 17 22 9 12 1007.5 1007.4 0.0
19/06:00pm 34.8 35.3 20.0 42 9.9 NNE 17 22 9 12 1006.6 1006.5 0.0
19/05:30pm 36.0 36.3 20.7 41 10.3 N 20 32 11 17 1006.0 1005.9 0.0
19/05:00pm 36.1 37.3 21.5 42 10.0 NNE 17 24 9 13 1006.1 1006.0 0.0
19/04:30pm 36.2 37.0 22.4 45 9.5 NNE 22 32 12 17 1005.8 1005.7 0.0
19/04:00pm 36.4 37.4 21.0 40 10.4 NNE 17 30 9 16 1005.8 1005.7 0.0
19/03:30pm 38.3 40.1 21.9 38 11.3 NNE 15 20 8 11 1005.9 1005.8 0.0
19/03:00pm 35.3 36.6 22.3 47 9.0 NNE 19 30 10 16 1006.3 1006.2 0.0
19/02:30pm 37.6 39.4 23.3 44 10.0 N 19 30 10 16 1006.8 1006.7 0.0
19/02:00pm 38.1 41.2 22.1 39 11.0 N 9 20 5 11 1007.4 1007.3 0.0
19/01:30pm 36.3 37.8 20.5 39 10.7 NNE 13 24 7 13 1008.1 1008.0 0.0
19/01:00pm 35.9 38.4 21.7 43 9.7 NNE 11 17 6 9 1008.5 1008.4 0.0
19/12:30pm 36.3 37.2 20.9 40 10.4 N 17 30 9 16 1009.2 1009.1 0.0
19/12:00pm 36.2 37.5 21.6 42 10.0 N 17 28 9 15 1009.7 1009.6 0.0
19/11:30am 35.9 38.6 21.3 42 9.9 NNE 9 19 5 10 1010.1 1010.0 0.0
19/11:00am 35.7 38.5 20.8 42 10.1 E 7 15 4 8 1010.7 1010.6 0.0
19/10:30am 35.1 38.0 21.0 43 9.5 ENE 7 17 4 9 1010.9 1010.8 0.0
19/10:00am 33.2 36.9 22.3 52 7.5 NNE 6 11 3 6 1011.2 1011.1 0.0
19/09:30am 33.1 37.1 23.7 57 6.5 NW 9 15 5 8 1011.5 1011.4 0.0
19/09:00am 33.3 37.6 24.2 59 6.4 N 9 20 5 11 1011.4 1011.3 4.4
19/08:30am 31.7 36.4 24.3 65 5.2 NNE 7 15 4 8 1011.3 1011.2 4.4
19/08:00am 30.8 35.2 24.4 68 4.5 NNE 9 15 5 8 1011.0 1010.9 4.4
19/07:30am 30.6 35.5 25.2 73 3.8 NE 9 13 5 7 1011.0 1010.9 4.4
19/07:00am 29.5 36.1 25.3 78 3.0 CALM 0 0 0 0 1010.9 1010.8 4.4
19/06:30am 27.9 34.4 25.1 85 2.0 CALM 0 0 0 0 1010.4 1010.3 4.4
19/06:00am 27.5 33.9 24.9 86 1.8 CALM 0 0 0 0 1010.0 1009.9 4.4
19/05:30am 27.5 33.1 24.9 86 1.8 ENE 4 6 2 3 1009.5 1009.4 4.4
19/05:00am 27.6 33.6 24.8 85 2.0 NE 2 6 1 3 1009.0 1008.9 4.4
19/04:30am 27.7 34.2 25.1 86 1.8 CALM 0 0 0 0 1008.8 1008.7 4.4
19/04:00am 27.8 33.1 25.0 85 2.0 N 6 7 3 4 1008.7 1008.6 4.4
19/03:30am 28.0 33.1 25.0 84 2.1 NE 7 9 4 5 1008.8 1008.7 4.4
19/03:00am 28.2 33.9 25.0 83 2.2 NE 4 7 2 4 1008.7 1008.6 4.4
19/02:30am 28.4 33.3 25.2 83 2.2 ENE 9 11 5 6 1008.4 1008.3 4.4
19/02:00am 28.2 34.9 25.4 85 2.0 CALM 0 0 0 0 1008.5 1008.4 4.4
19/01:30am 28.8 35.4 25.2 81 2.5 CALM 0 0 0 0 1008.6 1008.5 4.4
19/01:00am 29.1 34.3 25.1 79 2.8 ENE 7 11 4 6 1008.6 1008.5 4.4
19/12:30am 29.2 34.5 25.2 79 2.8 NE 7 9 4 5 1009.1 1009.0 4.4
19/12:00am 29.4 35.6 25.2 78 3.0 ENE 2 7 1 4 1009.3 1009.2 4.4
 
Date/Time
CST
Temp
°C
App
Temp
°C
Dew
Point
Rel
Hum
%
Delta-T
°C
Wind Press
QNH
hPa
Press
MSL
hPa
Rain
since 9 am
mm
Dir
 
Spd
km/h
Gust
km/h
Spd
kts
Gust
kts
18/11:30pm 29.4 34.7 24.9 77 3.2 NE 6 9 3 5 1009.6 1009.5 4.4
18/11:00pm 30.0 34.4 25.1 75 3.4 ENE 11 15 6 8 1009.5 1009.4 4.4
18/10:30pm 29.9 34.5 25.4 77 3.2 E 11 15 6 8 1009.6 1009.5 4.4
18/10:00pm 30.0 34.9 25.3 76 3.3 NE 9 13 5 7 1009.0 1008.9 4.4
18/09:30pm 30.2 34.9 25.0 73 3.7 E 9 13 5 7 1008.8 1008.7 4.4
18/09:00pm 30.5 34.5 24.4 70 4.3 NNE 11 15 6 8 1008.3 1008.2 4.4
18/08:30pm 31.0 34.5 22.9 62 5.6 NE 9 13 5 7 1007.9 1007.8 4.4
18/08:00pm 31.4 34.3 22.4 59 6.1 N 11 15 6 8 1007.3 1007.2 4.4
18/07:30pm 32.1 34.1 21.6 53 7.1 N 13 19 7 10 1007.1 1007.0 4.4
18/07:00pm 32.9 34.1 21.4 50 7.8 NNE 17 22 9 12 1006.7 1006.6 4.4
18/06:30pm 33.9 35.1 20.6 45 8.9 NNE 15 22 8 12 1006.4 1006.3 4.4
18/06:00pm 34.8 34.9 20.4 43 9.7 NNE 20 30 11 16 1005.6 1005.5 4.4
18/05:30pm 36.0 35.1 20.7 41 10.4 N 26 35 14 19 1005.1 1005.0 4.4
18/05:00pm 36.8 37.0 20.6 39 10.9 N 20 30 11 16 1005.1 1005.0 4.4
18/04:30pm 36.9 37.6 22.2 42 10.2 N 22 32 12 17 1005.3 1005.2 4.4
18/04:00pm 36.6 39.3 24.8 50 8.4 N 19 30 10 16 1005.3 1005.2 4.4
18/03:30pm 33.6 38.3 25.0 60 6.1 S 9 22 5 12 1005.8 1005.7 4.4
18/03:17pm 32.4 34.4 21.6 53 7.3 WSW 13 41 7 22 1005.9 1005.8 4.4
18/03:00pm 30.0 27.4 16.8 45 8.3 N 26 48 14 26 1006.2 1006.1 4.0
18/02:58pm 27.9 24.3 15.2 46 7.7 NNE 28 48 15 26 1006.4 1006.3 3.6
18/02:54pm 32.6 33.3 23.0 57 6.6 NNE 24 39 13 21 1006.3 1006.2 1.2
18/02:30pm 38.5 41.8 20.8 36 12.1 NW 4 17 2 9 1006.1 1006.0 0.0
18/02:00pm 38.7 40.0 18.5 30 13.3 NE 9 19 5 10 1006.6 1006.5 0.0
18/01:30pm 38.0 39.1 18.9 32 12.7 NE 11 19 6 10 1007.1 1007.0 0.0
18/01:00pm 37.6 39.7 19.0 33 12.3 SE 6 17 3 9 1007.6 1007.5 0.0
18/12:30pm 39.2 40.4 20.0 33 13.0 NE 13 24 7 13 1008.0 1007.9 0.0
18/12:00pm 37.3 39.2 19.7 35 11.8 WNW 9 17 5 9 1008.4 1008.3 0.0
18/11:30am 37.6 39.5 21.3 39 11.1 WSW 13 22 7 12 1008.8 1008.7 0.0
18/11:00am 36.7 39.0 22.1 43 10.0 NW 13 19 7 10 1009.3 1009.2 0.0
18/10:30am 35.5 37.8 22.8 47 8.8 NW 15 20 8 11 1009.5 1009.4 0.0
18/10:00am 35.9 38.6 23.5 48 8.7 NW 15 20 8 11 1009.5 1009.4 0.0
18/09:30am 34.6 37.7 23.6 52 7.7 NW 13 20 7 11 1009.5 1009.4 0.0
18/09:00am 34.0 36.6 24.0 56 7.0 NNW 17 24 9 13 1009.6 1009.5 0.0
18/08:30am 33.0 35.0 23.6 57 6.5 N 19 26 10 14 1009.4 1009.3 0.0
18/08:00am 31.9 36.2 25.5 69 4.5 N 13 19 7 10 1009.4 1009.3 0.0
18/07:30am 30.8 35.3 25.2 72 4.0 NE 11 15 6 8 1009.1 1009.0 0.0
18/07:00am 29.3 34.7 25.5 80 2.7 NE 7 11 4 6 1008.8 1008.7 0.0
18/06:30am 28.2 33.6 25.2 84 2.1 NE 6 7 3 4 1008.3 1008.2 0.0
18/06:00am 27.1 33.2 24.4 85 1.9 CALM 0 6 0 3 1007.8 1007.7 0.0
18/05:30am 27.2 33.4 24.6 86 1.8 CALM 0 0 0 0 1007.2 1007.1 0.0
18/05:00am 27.4 33.7 24.7 85 1.9 CALM 0 0 0 0 1006.8 1006.7 0.0
18/04:30am 27.5 33.5 24.3 83 2.2 CALM 0 0 0 0 1006.6 1006.5 0.0
18/04:00am 27.6 33.4 24.0 81 2.5 CALM 0 0 0 0 1006.6 1006.5 0.0
18/03:30am 28.2 33.4 24.8 82 2.4 NE 6 9 3 5 1006.6 1006.5 0.0
18/03:00am 28.3 33.4 24.9 82 2.4 NE 7 9 4 5 1006.7 1006.6 0.0
18/02:30am 28.3 33.1 24.5 80 2.6 N 7 9 4 5 1006.7 1006.6 0.0
18/02:00am 28.6 33.1 24.6 79 2.8 N 9 15 5 8 1007.0 1006.9 0.0
18/01:30am 28.5 32.8 24.3 78 2.9 N 9 11 5 6 1007.1 1007.0 0.0
18/01:00am 28.4 33.3 24.4 79 2.8 N 6 9 3 5 1007.4 1007.3 0.0
18/12:30am 28.6 33.4 24.4 78 2.9 N 7 11 4 6 1007.7 1007.6 0.0
18/12:00am 29.0 33.1 24.6 77 3.1 N 11 15 6 8 1008.2 1008.1 0.0
 
Date/Time
CST
Temp
°C
App
Temp
°C
Dew
Point
Rel
Hum
%
Delta-T
°C
Wind Press
QNH
hPa
Press
MSL
hPa
Rain
since 9 am
mm
Dir
 
Spd
km/h
Gust
km/h
Spd
kts
Gust
kts
17/11:30pm 29.1 33.5 24.4 76 3.3 NNE 9 15 5 8 1008.5 1008.4 0.0
17/11:00pm 29.0 33.5 24.6 77 3.1 NNE 9 13 5 7 1008.4 1008.3 0.0
17/10:30pm 29.4 33.8 24.5 75 3.4 NNE 9 19 5 10 1008.1 1008.0 0.0
17/10:00pm 29.7 33.4 24.6 74 3.6 NE 13 19 7 10 1007.7 1007.6 0.0
17/09:30pm 30.1 33.9 24.0 70 4.2 NE 11 15 6 8 1007.3 1007.2 0.0
17/09:00pm 30.2 34.1 23.6 67 4.6 NE 9 13 5 7 1006.8 1006.7 0.0
17/08:30pm 30.5 34.4 22.9 64 5.2 NNE 7 11 4 6 1006.3 1006.2 0.0
17/08:00pm 31.2 33.3 21.7 57 6.4 NNE 13 17 7 9 1005.7 1005.6 0.0
17/07:30pm 32.2 33.4 19.1 45 8.6 NE 11 15 6 8 1005.1 1005.0 0.0
17/07:00pm 32.8 33.5 19.6 45 8.7 NE 15 22 8 12 1004.6 1004.5 0.0
17/06:30pm 33.7 34.8 21.2 48 8.5 NE 17 24 9 13 1004.4 1004.3 0.0
17/06:00pm 34.8 34.9 20.4 43 9.7 NE 20 28 11 15 1004.2 1004.1 0.0
17/05:30pm 35.4 36.0 21.3 44 9.6 NE 20 32 11 17 1004.0 1003.9 0.0
17/05:00pm 37.1 35.9 17.1 30 12.9 NE 19 28 10 15 1003.9 1003.8 0.0
17/04:30pm 37.4 36.6 18.4 32 12.5 NNE 20 28 11 15 1003.6 1003.5 0.0
17/04:00pm 38.2 37.7 18.6 31 12.9 NNE 19 32 10 17 1003.7 1003.6 0.0
17/03:30pm 39.1 38.6 17.8 28 14.0 N 17 26 9 14 1003.9 1003.8 0.0
17/03:00pm 38.7 37.2 16.3 26 14.4 NNE 19 28 10 15 1004.2 1004.1 0.0
17/02:30pm 38.9 37.7 17.1 28 14.2 NNE 19 28 10 15 1004.6 1004.5 0.0
17/02:00pm 38.6 37.3 16.8 27 14.1 N 19 32 10 17 1005.0 1004.9 0.0
17/01:30pm 38.3 38.2 18.7 31 13.0 NNE 17 28 9 15 1005.4 1005.3 0.0
17/01:00pm 38.1 38.2 20.0 35 12.2 N 19 28 10 15 1005.7 1005.6 0.0
17/12:30pm 36.4 36.8 20.6 39 10.7 N 19 32 10 17 1006.2 1006.1 0.0
17/12:00pm 37.1 37.6 20.0 37 11.5 N 17 28 9 15 1006.6 1006.5 0.0
17/11:30am 37.5 38.6 21.2 38 11.1 NNE 17 28 9 15 1007.0 1006.9 0.0
17/11:00am 35.9 36.7 20.6 41 10.3 N 17 28 9 15 1007.3 1007.2 0.0
17/10:30am 36.2 36.9 20.4 39 10.6 N 17 26 9 14 1007.6 1007.5 0.0
17/10:00am 35.7 35.2 18.7 36 11.2 NNE 19 28 10 15 1007.9 1007.8 0.0
17/09:30am 33.9 35.6 22.3 50 8.0 NE 17 24 9 13 1008.2 1008.1 0.0
17/09:00am 33.3 35.9 23.3 55 6.9 NNE 15 20 8 11 1008.4 1008.3 0.0
17/08:30am 32.6 35.5 24.4 62 5.8 N 17 22 9 12 1008.3 1008.2 0.0
17/08:00am 30.9 34.6 24.5 68 4.5 NNE 13 19 7 10 1008.3 1008.2 0.0
17/07:30am 29.5 33.9 24.4 74 3.6 NNE 9 13 5 7 1008.0 1007.9 0.0
17/07:00am 29.0 34.1 25.0 79 2.8 NNE 7 9 4 5 1007.6 1007.5 0.0
17/06:30am 27.8 34.0 24.6 83 2.2 CALM 0 0 0 0 1007.2 1007.1 0.0
17/06:00am 26.8 32.8 24.3 86 1.7 CALM 0 0 0 0 1006.7 1006.6 0.0
17/05:30am 27.0 33.1 24.5 86 1.7 CALM 0 9 0 5 1006.3 1006.2 0.0
17/05:00am 26.7 32.7 24.2 86 1.7 CALM 0 6 0 3 1006.1 1006.0 0.0
17/04:30am 26.2 31.6 23.3 84 2.0 CALM 0 0 0 0 1005.7 1005.6 0.0
17/04:00am 27.3 33.3 24.2 83 2.1 CALM 0 0 0 0 1005.7 1005.6 0.0
17/03:30am 27.4 33.4 24.3 83 2.2 CALM 0 0 0 0 1005.5 1005.4 0.0
17/03:00am 27.9 34.0 24.5 82 2.4 CALM 0 0 0 0 1005.7 1005.6 0.0
17/02:30am 27.7 33.5 23.9 80 2.6 CALM 0 0 0 0 1005.8 1005.7 0.0
17/02:00am 28.2 34.0 24.6 81 2.5 NNW 2 6 1 3 1005.7 1005.6 0.0
17/01:30am 28.5 34.9 24.9 81 2.5 CALM 0 4 0 2 1005.8 1005.7 0.0
17/01:00am 28.2 33.2 24.8 82 2.4 N 7 11 4 6 1006.0 1005.9 0.0
17/12:30am 28.6 34.9 24.8 80 2.7 CALM 0 0 0 0 1006.3 1006.2 0.0
17/12:00am 28.8 33.8 24.8 79 2.8 NNE 7 9 4 5 1006.3 1006.2 0.0
 
Date/Time
CST
Temp
°C
App
Temp
°C
Dew
Point
Rel
Hum
%
Delta-T
°C
Wind Press
QNH
hPa
Press
MSL
hPa
Rain
since 9 am
mm
Dir
 
Spd
km/h
Gust
km/h
Spd
kts
Gust
kts
16/11:30pm 29.2 33.9 25.0 78 3.0 NE 9 11 5 6 1006.5 1006.4 0.0
16/11:00pm 29.6 34.7 24.9 76 3.3 NE 7 13 4 7 1006.8 1006.7 0.0
16/10:30pm 29.8 34.1 24.9 75 3.4 NE 11 17 6 9 1006.6 1006.5 0.0
16/10:00pm 30.1 34.0 24.9 73 3.7 NE 13 20 7 11 1006.4 1006.3 0.0
16/09:30pm 30.2 33.7 24.8 73 3.8 NE 15 24 8 13 1006.0 1005.9 0.0
16/09:00pm 30.5 34.0 24.9 72 3.9 NNE 15 28 8 15 1005.7 1005.6 0.0
16/08:30pm 30.7 34.1 24.6 70 4.3 NNE 15 20 8 11 1005.4 1005.3 0.0
16/08:00pm 31.3 34.0 24.2 66 5.0 NNE 17 30 9 16 1004.9 1004.8 0.0

Other Formats:

Comma delimited format used in spreadsheet applications
http://www.bom.gov.au/fwo/IDD60801/IDD60801.94152.axf

JavaScript Object Notation format (JSON) in row-major order
http://www.bom.gov.au/fwo/IDD60801/IDD60801.94152.json